Bourbon, Indiana
Current Conditions -  °F | °C
As of 6:15 AM on Wednesday 26 Nov 2014 (Local Time) from KASW Reporting Station
Overcast Overcast  
Wind Chill: 19°   Ceiling: 1200
Heat Index: 25°   Visibility: 10mi
Dew Point: 21°   Wind: 5mph
Humidity: 86%   Direction: 70°ENE
Pressure: 30.16"   Gusts: NA
Location:  41.3°N, 86.12°W
Report Text: KASW 261115Z AUTO 07004KT 10SM OVC012 M04/M06 A3016 RMK AO2
Loading
Personal Weather Stations






























Interactive Weather Map New forecast layout! Learn more

10-Day Weather Forecast

Advertisements
Track Severe Weather on mobile